sensor_id;sensor_type;location;lat;lon;timestamp;P1;durP1;ratioP1;P2;durP2;ratioP2
51901;SDS011;37929;53.218;6.548;2023-03-16T00:02:06;8.73;;;2.25;;
51901;SDS011;37929;53.218;6.548;2023-03-16T00:04:33;5.15;;;1.75;;
51901;SDS011;37929;53.218;6.548;2023-03-16T00:07:07;4.72;;;1.90;;
51901;SDS011;37929;53.218;6.548;2023-03-16T00:09:35;6.00;;;2.05;;
51901;SDS011;37929;53.218;6.548;2023-03-16T00:12:05;5.40;;;1.90;;
51901;SDS011;37929;53.218;6.548;2023-03-16T00:14:39;2.75;;;1.77;;
51901;SDS011;37929;53.218;6.548;2023-03-16T00:17:12;5.63;;;2.25;;
51901;SDS011;37929;53.218;6.548;2023-03-16T00:19:53;5.10;;;2.20;;
51901;SDS011;37929;53.218;6.548;2023-03-16T00:22:23;6.82;;;2.45;;
51901;SDS011;37929;53.218;6.548;2023-03-16T00:24:53;4.75;;;2.17;;
51901;SDS011;37929;53.218;6.548;2023-03-16T00:27:20;5.10;;;2.30;;
51901;SDS011;37929;53.218;6.548;2023-03-16T00:29:47;5.25;;;2.30;;
51901;SDS011;37929;53.218;6.548;2023-03-16T00:32:20;4.57;;;2.20;;
51901;SDS011;37929;53.218;6.548;2023-03-16T00:34:51;4.40;;;2.30;;
51901;SDS011;37929;53.218;6.548;2023-03-16T00:37:18;6.97;;;2.90;;
51901;SDS011;37929;53.218;6.548;2023-03-16T00:39:47;6.65;;;2.05;;
51901;SDS011;37929;53.218;6.548;2023-03-16T00:42:14;4.38;;;2.33;;
51901;SDS011;37929;53.218;6.548;2023-03-16T00:44:41;5.22;;;2.25;;
51901;SDS011;37929;53.218;6.548;2023-03-16T00:47:07;6.00;;;2.50;;
51901;SDS011;37929;53.218;6.548;2023-03-16T00:49:34;5.63;;;2.17;;
51901;SDS011;37929;53.218;6.548;2023-03-16T00:52:01;5.50;;;2.30;;
51901;SDS011;37929;53.218;6.548;2023-03-16T00:54:29;6.90;;;2.58;;
51901;SDS011;37929;53.218;6.548;2023-03-16T00:56:59;5.15;;;2.38;;
51901;SDS011;37929;53.218;6.548;2023-03-16T00:59:26;6.35;;;2.15;;
51901;SDS011;37929;53.218;6.548;2023-03-16T01:01:53;4.75;;;2.28;;
51901;SDS011;37929;53.218;6.548;2023-03-16T01:04:19;3.58;;;2.78;;
51901;SDS011;37929;53.218;6.548;2023-03-16T01:06:45;3.90;;;2.67;;
51901;SDS011;37929;53.218;6.548;2023-03-16T01:09:12;7.68;;;2.38;;
51901;SDS011;37929;53.218;6.548;2023-03-16T01:11:39;4.03;;;2.25;;
51901;SDS011;37929;53.218;6.548;2023-03-16T01:14:07;8.07;;;3.20;;
51901;SDS011;37929;53.218;6.548;2023-03-16T01:16:34;5.30;;;2.38;;
51901;SDS011;37929;53.218;6.548;2023-03-16T01:19:00;6.88;;;2.33;;
51901;SDS011;37929;53.218;6.548;2023-03-16T01:21:26;6.55;;;2.63;;
51901;SDS011;37929;53.218;6.548;2023-03-16T01:23:52;5.45;;;2.38;;
51901;SDS011;37929;53.218;6.548;2023-03-16T01:26:19;4.93;;;2.47;;
51901;SDS011;37929;53.218;6.548;2023-03-16T01:28:45;3.88;;;2.30;;
51901;SDS011;37929;53.218;6.548;2023-03-16T01:31:13;8.68;;;2.60;;
51901;SDS011;37929;53.218;6.548;2023-03-16T01:33:40;4.43;;;2.58;;
51901;SDS011;37929;53.218;6.548;2023-03-16T01:36:13;7.25;;;3.20;;
51901;SDS011;37929;53.218;6.548;2023-03-16T01:38:40;5.90;;;2.70;;
51901;SDS011;37929;53.218;6.548;2023-03-16T01:41:07;5.22;;;2.60;;
51901;SDS011;37929;53.218;6.548;2023-03-16T01:43:33;4.47;;;2.40;;
51901;SDS011;37929;53.218;6.548;2023-03-16T01:53:39;3.95;;;2.63;;
51901;SDS011;37929;53.218;6.548;2023-03-16T01:56:10;7.82;;;2.70;;
51901;SDS011;37929;53.218;6.548;2023-03-16T01:58:41;5.45;;;3.05;;
51901;SDS011;37929;53.218;6.548;2023-03-16T02:01:08;4.57;;;2.72;;
51901;SDS011;37929;53.218;6.548;2023-03-16T02:03:35;6.53;;;3.03;;
51901;SDS011;37929;53.218;6.548;2023-03-16T02:08:32;6.28;;;2.80;;
51901;SDS011;37929;53.218;6.548;2023-03-16T02:11:00;3.53;;;2.90;;
51901;SDS011;37929;53.218;6.548;2023-03-16T02:13:29;5.53;;;3.08;;
51901;SDS011;37929;53.218;6.548;2023-03-16T02:16:00;7.38;;;3.38;;
51901;SDS011;37929;53.218;6.548;2023-03-16T02:18:28;4.55;;;2.92;;
51901;SDS011;37929;53.218;6.548;2023-03-16T02:23:49;9.65;;;3.30;;
51901;SDS011;37929;53.218;6.548;2023-03-16T02:26:21;5.28;;;3.30;;
51901;SDS011;37929;53.218;6.548;2023-03-16T02:31:30;5.90;;;2.90;;
51901;SDS011;37929;53.218;6.548;2023-03-16T02:33:56;5.68;;;3.20;;
51901;SDS011;37929;53.218;6.548;2023-03-16T02:36:23;5.97;;;3.30;;
51901;SDS011;37929;53.218;6.548;2023-03-16T02:38:49;5.68;;;3.10;;
51901;SDS011;37929;53.218;6.548;2023-03-16T02:41:16;6.07;;;3.58;;
51901;SDS011;37929;53.218;6.548;2023-03-16T02:43:47;6.28;;;3.50;;
51901;SDS011;37929;53.218;6.548;2023-03-16T02:46:20;5.95;;;3.65;;
51901;SDS011;37929;53.218;6.548;2023-03-16T02:51:49;5.80;;;3.90;;
51901;SDS011;37929;53.218;6.548;2023-03-16T02:54:15;4.88;;;3.45;;
51901;SDS011;37929;53.218;6.548;2023-03-16T02:56:41;4.93;;;3.40;;
51901;SDS011;37929;53.218;6.548;2023-03-16T02:59:07;8.13;;;3.53;;
51901;SDS011;37929;53.218;6.548;2023-03-16T03:01:33;7.35;;;3.92;;
51901;SDS011;37929;53.218;6.548;2023-03-16T03:04:00;6.65;;;3.53;;
51901;SDS011;37929;53.218;6.548;2023-03-16T03:06:27;6.63;;;3.67;;
51901;SDS011;37929;53.218;6.548;2023-03-16T03:08:53;4.57;;;3.55;;
51901;SDS011;37929;53.218;6.548;2023-03-16T03:11:19;7.80;;;3.88;;
51901;SDS011;37929;53.218;6.548;2023-03-16T03:13:45;6.65;;;3.53;;
51901;SDS011;37929;53.218;6.548;2023-03-16T03:16:11;4.82;;;3.20;;
51901;SDS011;37929;53.218;6.548;2023-03-16T03:18:37;11.48;;;3.83;;
51901;SDS011;37929;53.218;6.548;2023-03-16T03:21:03;9.55;;;3.78;;
51901;SDS011;37929;53.218;6.548;2023-03-16T03:23:30;10.60;;;3.88;;
51901;SDS011;37929;53.218;6.548;2023-03-16T03:25:56;6.18;;;3.40;;
51901;SDS011;37929;53.218;6.548;2023-03-16T03:28:23;6.78;;;3.58;;
51901;SDS011;37929;53.218;6.548;2023-03-16T03:30:48;6.75;;;3.45;;
51901;SDS011;37929;53.218;6.548;2023-03-16T03:33:15;5.32;;;3.58;;
51901;SDS011;37929;53.218;6.548;2023-03-16T03:35:41;6.70;;;3.70;;
51901;SDS011;37929;53.218;6.548;2023-03-16T03:38:07;5.82;;;3.15;;
51901;SDS011;37929;53.218;6.548;2023-03-16T03:40:33;4.53;;;3.22;;
51901;SDS011;37929;53.218;6.548;2023-03-16T03:42:59;6.53;;;3.60;;
51901;SDS011;37929;53.218;6.548;2023-03-16T03:45:25;6.05;;;3.40;;
51901;SDS011;37929;53.218;6.548;2023-03-16T03:47:51;5.20;;;3.50;;
51901;SDS011;37929;53.218;6.548;2023-03-16T03:50:19;6.03;;;3.70;;
51901;SDS011;37929;53.218;6.548;2023-03-16T03:52:46;7.72;;;3.40;;
51901;SDS011;37929;53.218;6.548;2023-03-16T03:55:12;5.95;;;3.15;;
51901;SDS011;37929;53.218;6.548;2023-03-16T03:57:37;6.60;;;3.80;;
51901;SDS011;37929;53.218;6.548;2023-03-16T04:00:06;5.78;;;3.10;;
51901;SDS011;37929;53.218;6.548;2023-03-16T04:02:35;5.53;;;3.15;;
51901;SDS011;37929;53.218;6.548;2023-03-16T04:05:02;5.70;;;3.65;;
51901;SDS011;37929;53.218;6.548;2023-03-16T04:07:30;6.78;;;3.20;;
51901;SDS011;37929;53.218;6.548;2023-03-16T04:09:56;5.38;;;3.33;;
51901;SDS011;37929;53.218;6.548;2023-03-16T04:12:22;6.47;;;3.60;;
51901;SDS011;37929;53.218;6.548;2023-03-16T04:14:48;7.38;;;3.53;;
51901;SDS011;37929;53.218;6.548;2023-03-16T04:17:15;5.07;;;3.28;;
51901;SDS011;37929;53.218;6.548;2023-03-16T04:19:41;5.35;;;3.75;;
51901;SDS011;37929;53.218;6.548;2023-03-16T04:22:07;4.95;;;3.45;;
51901;SDS011;37929;53.218;6.548;2023-03-16T04:24:33;5.78;;;3.47;;
51901;SDS011;37929;53.218;6.548;2023-03-16T04:27:00;6.53;;;3.45;;
51901;SDS011;37929;53.218;6.548;2023-03-16T04:29:27;4.35;;;2.83;;
51901;SDS011;37929;53.218;6.548;2023-03-16T04:31:53;5.78;;;3.20;;
51901;SDS011;37929;53.218;6.548;2023-03-16T04:34:19;4.65;;;3.33;;
51901;SDS011;37929;53.218;6.548;2023-03-16T04:36:55;4.28;;;3.15;;
51901;SDS011;37929;53.218;6.548;2023-03-16T04:39:21;3.78;;;3.22;;
51901;SDS011;37929;53.218;6.548;2023-03-16T04:41:47;8.48;;;3.65;;
51901;SDS011;37929;53.218;6.548;2023-03-16T04:44:14;5.43;;;3.00;;
51901;SDS011;37929;53.218;6.548;2023-03-16T04:46:40;5.75;;;3.20;;
51901;SDS011;37929;53.218;6.548;2023-03-16T04:49:05;9.07;;;3.17;;
51901;SDS011;37929;53.218;6.548;2023-03-16T04:51:34;6.50;;;3.05;;
51901;SDS011;37929;53.218;6.548;2023-03-16T04:54:04;6.20;;;3.10;;
51901;SDS011;37929;53.218;6.548;2023-03-16T04:56:30;4.68;;;3.20;;
51901;SDS011;37929;53.218;6.548;2023-03-16T04:58:56;5.40;;;3.30;;
51901;SDS011;37929;53.218;6.548;2023-03-16T05:01:22;7.72;;;3.33;;
51901;SDS011;37929;53.218;6.548;2023-03-16T05:03:48;10.52;;;3.40;;
51901;SDS011;37929;53.218;6.548;2023-03-16T05:06:14;4.88;;;2.95;;
51901;SDS011;37929;53.218;6.548;2023-03-16T05:08:40;4.55;;;3.45;;
51901;SDS011;37929;53.218;6.548;2023-03-16T05:11:06;6.95;;;3.67;;
51901;SDS011;37929;53.218;6.548;2023-03-16T05:13:32;6.28;;;3.22;;
51901;SDS011;37929;53.218;6.548;2023-03-16T05:15:58;5.90;;;3.40;;
51901;SDS011;37929;53.218;6.548;2023-03-16T05:18:24;9.65;;;3.40;;
51901;SDS011;37929;53.218;6.548;2023-03-16T05:20:54;7.63;;;3.47;;
51901;SDS011;37929;53.218;6.548;2023-03-16T05:23:21;6.03;;;3.80;;
51901;SDS011;37929;53.218;6.548;2023-03-16T05:25:48;7.85;;;3.58;;
51901;SDS011;37929;53.218;6.548;2023-03-16T05:28:14;7.70;;;3.67;;
51901;SDS011;37929;53.218;6.548;2023-03-16T05:30:41;5.35;;;3.40;;
51901;SDS011;37929;53.218;6.548;2023-03-16T05:33:09;7.22;;;3.50;;
51901;SDS011;37929;53.218;6.548;2023-03-16T05:35:35;5.93;;;3.15;;
51901;SDS011;37929;53.218;6.548;2023-03-16T05:38:02;7.70;;;3.47;;
51901;SDS011;37929;53.218;6.548;2023-03-16T05:40:28;5.75;;;3.20;;
51901;SDS011;37929;53.218;6.548;2023-03-16T05:42:54;5.63;;;3.22;;
51901;SDS011;37929;53.218;6.548;2023-03-16T05:45:21;4.90;;;3.40;;
51901;SDS011;37929;53.218;6.548;2023-03-16T05:47:47;4.90;;;3.60;;
51901;SDS011;37929;53.218;6.548;2023-03-16T05:50:13;4.60;;;3.22;;
51901;SDS011;37929;53.218;6.548;2023-03-16T05:52:41;7.90;;;3.58;;
51901;SDS011;37929;53.218;6.548;2023-03-16T05:55:11;6.65;;;3.22;;
51901;SDS011;37929;53.218;6.548;2023-03-16T05:57:38;7.50;;;3.88;;
51901;SDS011;37929;53.218;6.548;2023-03-16T06:00:05;8.70;;;4.00;;
51901;SDS011;37929;53.218;6.548;2023-03-16T06:02:43;7.03;;;3.80;;
51901;SDS011;37929;53.218;6.548;2023-03-16T06:05:14;6.40;;;3.80;;
51901;SDS011;37929;53.218;6.548;2023-03-16T06:07:40;5.50;;;3.67;;
51901;SDS011;37929;53.218;6.548;2023-03-16T06:10:06;7.35;;;3.35;;
51901;SDS011;37929;53.218;6.548;2023-03-16T06:12:33;6.38;;;3.60;;
51901;SDS011;37929;53.218;6.548;2023-03-16T06:14:59;6.55;;;3.38;;
51901;SDS011;37929;53.218;6.548;2023-03-16T06:17:25;8.00;;;3.78;;
51901;SDS011;37929;53.218;6.548;2023-03-16T06:19:51;9.43;;;3.50;;
51901;SDS011;37929;53.218;6.548;2023-03-16T06:22:17;6.55;;;3.85;;
51901;SDS011;37929;53.218;6.548;2023-03-16T06:24:43;5.43;;;3.38;;
51901;SDS011;37929;53.218;6.548;2023-03-16T06:27:09;5.43;;;3.67;;
51901;SDS011;37929;53.218;6.548;2023-03-16T06:29:38;6.60;;;3.63;;
51901;SDS011;37929;53.218;6.548;2023-03-16T06:32:03;6.53;;;3.63;;
51901;SDS011;37929;53.218;6.548;2023-03-16T06:34:29;6.93;;;3.80;;
51901;SDS011;37929;53.218;6.548;2023-03-16T06:36:55;5.85;;;3.70;;
51901;SDS011;37929;53.218;6.548;2023-03-16T06:39:21;8.07;;;3.78;;
51901;SDS011;37929;53.218;6.548;2023-03-16T06:41:47;6.68;;;3.70;;
51901;SDS011;37929;53.218;6.548;2023-03-16T06:44:12;8.95;;;4.32;;
51901;SDS011;37929;53.218;6.548;2023-03-16T06:46:38;5.97;;;3.85;;
51901;SDS011;37929;53.218;6.548;2023-03-16T06:49:04;6.63;;;3.78;;
51901;SDS011;37929;53.218;6.548;2023-03-16T06:51:33;6.22;;;4.13;;
51901;SDS011;37929;53.218;6.548;2023-03-16T06:53:59;7.28;;;4.10;;
51901;SDS011;37929;53.218;6.548;2023-03-16T06:56:25;6.35;;;3.97;;
51901;SDS011;37929;53.218;6.548;2023-03-16T06:58:52;5.63;;;4.13;;
51901;SDS011;37929;53.218;6.548;2023-03-16T07:01:18;8.93;;;4.20;;
51901;SDS011;37929;53.218;6.548;2023-03-16T07:03:44;7.05;;;3.28;;
51901;SDS011;37929;53.218;6.548;2023-03-16T07:06:09;4.63;;;3.40;;
51901;SDS011;37929;53.218;6.548;2023-03-16T07:08:36;10.07;;;4.30;;
51901;SDS011;37929;53.218;6.548;2023-03-16T07:11:02;5.88;;;3.63;;
51901;SDS011;37929;53.218;6.548;2023-03-16T07:13:27;6.20;;;4.10;;
51901;SDS011;37929;53.218;6.548;2023-03-16T07:15:53;7.25;;;3.60;;
51901;SDS011;37929;53.218;6.548;2023-03-16T07:18:19;6.20;;;3.65;;
51901;SDS011;37929;53.218;6.548;2023-03-16T07:20:45;7.60;;;3.97;;
51901;SDS011;37929;53.218;6.548;2023-03-16T07:23:11;8.65;;;3.90;;
51901;SDS011;37929;53.218;6.548;2023-03-16T07:25:37;4.93;;;3.75;;
51901;SDS011;37929;53.218;6.548;2023-03-16T07:28:03;5.60;;;3.42;;
51901;SDS011;37929;53.218;6.548;2023-03-16T07:30:29;5.32;;;3.55;;
51901;SDS011;37929;53.218;6.548;2023-03-16T07:32:55;6.88;;;3.53;;
51901;SDS011;37929;53.218;6.548;2023-03-16T07:35:21;6.35;;;3.38;;
51901;SDS011;37929;53.218;6.548;2023-03-16T07:37:47;8.77;;;3.45;;
51901;SDS011;37929;53.218;6.548;2023-03-16T07:40:13;6.63;;;3.20;;
51901;SDS011;37929;53.218;6.548;2023-03-16T07:42:39;6.95;;;3.55;;
51901;SDS011;37929;53.218;6.548;2023-03-16T07:45:06;5.60;;;3.30;;
51901;SDS011;37929;53.218;6.548;2023-03-16T07:47:33;5.55;;;3.10;;
51901;SDS011;37929;53.218;6.548;2023-03-16T07:49:59;6.05;;;3.70;;
51901;SDS011;37929;53.218;6.548;2023-03-16T07:52:25;5.35;;;3.13;;
51901;SDS011;37929;53.218;6.548;2023-03-16T07:54:51;5.15;;;3.30;;
51901;SDS011;37929;53.218;6.548;2023-03-16T07:57:17;6.03;;;3.90;;
51901;SDS011;37929;53.218;6.548;2023-03-16T07:59:43;6.68;;;3.63;;
51901;SDS011;37929;53.218;6.548;2023-03-16T08:02:13;6.00;;;3.15;;
51901;SDS011;37929;53.218;6.548;2023-03-16T08:04:40;5.35;;;3.10;;
51901;SDS011;37929;53.218;6.548;2023-03-16T08:07:07;7.15;;;3.45;;
51901;SDS011;37929;53.218;6.548;2023-03-16T08:09:36;5.18;;;3.47;;
51901;SDS011;37929;53.218;6.548;2023-03-16T08:12:02;5.18;;;3.58;;
51901;SDS011;37929;53.218;6.548;2023-03-16T08:14:31;6.30;;;3.45;;
51901;SDS011;37929;53.218;6.548;2023-03-16T08:17:01;6.63;;;3.65;;
51901;SDS011;37929;53.218;6.548;2023-03-16T08:19:28;5.60;;;3.22;;
51901;SDS011;37929;53.218;6.548;2023-03-16T08:21:54;7.57;;;3.70;;
51901;SDS011;37929;53.218;6.548;2023-03-16T08:24:21;7.63;;;4.32;;
51901;SDS011;37929;53.218;6.548;2023-03-16T08:26:47;5.53;;;3.80;;
51901;SDS011;37929;53.218;6.548;2023-03-16T08:29:13;6.15;;;3.45;;
51901;SDS011;37929;53.218;6.548;2023-03-16T08:31:38;7.18;;;3.45;;
51901;SDS011;37929;53.218;6.548;2023-03-16T08:34:06;7.15;;;3.85;;
51901;SDS011;37929;53.218;6.548;2023-03-16T08:36:34;5.45;;;3.70;;
51901;SDS011;37929;53.218;6.548;2023-03-16T08:39:01;8.07;;;3.67;;
51901;SDS011;37929;53.218;6.548;2023-03-16T08:41:28;5.93;;;3.60;;
51901;SDS011;37929;53.218;6.548;2023-03-16T08:43:55;8.38;;;4.28;;
51901;SDS011;37929;53.218;6.548;2023-03-16T08:46:21;5.55;;;3.50;;
51901;SDS011;37929;53.218;6.548;2023-03-16T08:48:48;5.80;;;3.40;;
51901;SDS011;37929;53.218;6.548;2023-03-16T08:51:14;6.10;;;3.83;;
51901;SDS011;37929;53.218;6.548;2023-03-16T08:53:41;6.65;;;3.45;;
51901;SDS011;37929;53.218;6.548;2023-03-16T08:56:11;7.22;;;3.72;;
51901;SDS011;37929;53.218;6.548;2023-03-16T08:58:39;6.47;;;3.80;;
51901;SDS011;37929;53.218;6.548;2023-03-16T09:01:10;5.68;;;3.33;;
51901;SDS011;37929;53.218;6.548;2023-03-16T09:03:37;5.35;;;3.40;;
51901;SDS011;37929;53.218;6.548;2023-03-16T09:06:05;7.55;;;3.45;;
51901;SDS011;37929;53.218;6.548;2023-03-16T09:08:34;7.07;;;3.80;;
51901;SDS011;37929;53.218;6.548;2023-03-16T09:11:07;5.15;;;3.42;;
51901;SDS011;37929;53.218;6.548;2023-03-16T09:13:35;6.13;;;3.47;;
51901;SDS011;37929;53.218;6.548;2023-03-16T09:16:02;8.63;;;4.28;;
51901;SDS011;37929;53.218;6.548;2023-03-16T09:18:32;8.93;;;3.45;;
51901;SDS011;37929;53.218;6.548;2023-03-16T09:20:59;6.68;;;4.38;;
51901;SDS011;37929;53.218;6.548;2023-03-16T09:23:30;9.75;;;4.00;;
51901;SDS011;37929;53.218;6.548;2023-03-16T09:25:58;6.15;;;3.70;;
51901;SDS011;37929;53.218;6.548;2023-03-16T09:28:27;7.72;;;3.80;;
51901;SDS011;37929;53.218;6.548;2023-03-16T09:30:55;7.07;;;3.90;;
51901;SDS011;37929;53.218;6.548;2023-03-16T09:33:22;6.30;;;3.55;;
51901;SDS011;37929;53.218;6.548;2023-03-16T09:35:49;9.93;;;3.88;;
51901;SDS011;37929;53.218;6.548;2023-03-16T09:38:16;7.45;;;4.20;;
51901;SDS011;37929;53.218;6.548;2023-03-16T09:40:44;7.20;;;3.70;;
51901;SDS011;37929;53.218;6.548;2023-03-16T09:43:19;9.35;;;4.05;;
51901;SDS011;37929;53.218;6.548;2023-03-16T09:46:10;7.25;;;4.28;;
51901;SDS011;37929;53.218;6.548;2023-03-16T09:48:37;5.55;;;3.60;;
51901;SDS011;37929;53.218;6.548;2023-03-16T09:51:06;5.38;;;4.03;;
51901;SDS011;37929;53.218;6.548;2023-03-16T09:53:41;7.85;;;4.45;;
51901;SDS011;37929;53.218;6.548;2023-03-16T09:56:14;6.10;;;3.97;;
51901;SDS011;37929;53.218;6.548;2023-03-16T09:58:44;7.80;;;4.30;;
51901;SDS011;37929;53.218;6.548;2023-03-16T10:01:13;6.63;;;4.18;;
51901;SDS011;37929;53.218;6.548;2023-03-16T10:06:26;4.85;;;3.38;;
51901;SDS011;37929;53.218;6.548;2023-03-16T10:09:06;6.68;;;3.60;;
51901;SDS011;37929;53.218;6.548;2023-03-16T10:11:58;7.20;;;4.22;;
51901;SDS011;37929;53.218;6.548;2023-03-16T10:14:29;11.02;;;4.15;;
51901;SDS011;37929;53.218;6.548;2023-03-16T10:19:55;9.75;;;4.38;;
51901;SDS011;37929;53.218;6.548;2023-03-16T10:22:30;8.05;;;4.13;;
51901;SDS011;37929;53.218;6.548;2023-03-16T10:27:42;7.50;;;4.03;;
51901;SDS011;37929;53.218;6.548;2023-03-16T10:30:15;9.45;;;4.30;;
51901;SDS011;37929;53.218;6.548;2023-03-16T10:35:21;5.38;;;3.38;;
51901;SDS011;37929;53.218;6.548;2023-03-16T10:38:08;10.80;;;3.70;;
51901;SDS011;37929;53.218;6.548;2023-03-16T10:40:51;9.75;;;3.92;;
51901;SDS011;37929;53.218;6.548;2023-03-16T10:43:17;7.80;;;4.03;;
51901;SDS011;37929;53.218;6.548;2023-03-16T10:45:43;8.10;;;4.25;;
51901;SDS011;37929;53.218;6.548;2023-03-16T10:48:18;9.77;;;4.43;;
51901;SDS011;37929;53.218;6.548;2023-03-16T10:50:53;7.95;;;3.85;;
51901;SDS011;37929;53.218;6.548;2023-03-16T10:53:25;8.18;;;3.67;;
51901;SDS011;37929;53.218;6.548;2023-03-16T10:55:58;7.80;;;4.30;;
51901;SDS011;37929;53.218;6.548;2023-03-16T10:58:28;6.47;;;4.35;;
51901;SDS011;37929;53.218;6.548;2023-03-16T11:00:56;6.97;;;4.00;;
51901;SDS011;37929;53.218;6.548;2023-03-16T11:03:27;7.93;;;5.05;;
51901;SDS011;37929;53.218;6.548;2023-03-16T11:06:06;8.05;;;3.70;;
51901;SDS011;37929;53.218;6.548;2023-03-16T11:08:42;9.60;;;3.85;;
51901;SDS011;37929;53.218;6.548;2023-03-16T11:13:42;8.93;;;3.92;;
51901;SDS011;37929;53.218;6.548;2023-03-16T11:21:50;9.88;;;4.43;;
51901;SDS011;37929;53.218;6.548;2023-03-16T11:26:56;7.47;;;4.50;;
51901;SDS011;37929;53.218;6.548;2023-03-16T11:29:38;5.60;;;4.07;;
51901;SDS011;37929;53.218;6.548;2023-03-16T11:32:12;5.32;;;3.58;;
51901;SDS011;37929;53.218;6.548;2023-03-16T11:34:42;6.68;;;3.85;;
51901;SDS011;37929;53.218;6.548;2023-03-16T11:39:59;6.35;;;3.33;;
51901;SDS011;37929;53.218;6.548;2023-03-16T11:43:17;7.43;;;3.85;;
51901;SDS011;37929;53.218;6.548;2023-03-16T11:45:27;7.25;;;4.15;;
51901;SDS011;37929;53.218;6.548;2023-03-16T11:56:46;6.25;;;3.70;;
51901;SDS011;37929;53.218;6.548;2023-03-16T11:59:35;6.32;;;3.65;;
51901;SDS011;37929;53.218;6.548;2023-03-16T12:08:02;8.88;;;3.78;;
51901;SDS011;37929;53.218;6.548;2023-03-16T12:15:46;6.45;;;3.90;;
51901;SDS011;37929;53.218;6.548;2023-03-16T12:21:03;7.03;;;3.63;;
51901;SDS011;37929;53.218;6.548;2023-03-16T12:26:20;4.55;;;2.88;;
51901;SDS011;37929;53.218;6.548;2023-03-16T12:28:48;4.80;;;3.15;;
51901;SDS011;37929;53.218;6.548;2023-03-16T12:32:01;5.80;;;3.25;;
51901;SDS011;37929;53.218;6.548;2023-03-16T12:34:14;4.97;;;3.20;;
51901;SDS011;37929;53.218;6.548;2023-03-16T12:43:04;6.75;;;3.38;;
51901;SDS011;37929;53.218;6.548;2023-03-16T12:50:28;4.95;;;3.25;;
51901;SDS011;37929;53.218;6.548;2023-03-16T12:52:54;5.32;;;3.00;;
51901;SDS011;37929;53.218;6.548;2023-03-16T12:57:59;7.68;;;3.03;;
51901;SDS011;37929;53.218;6.548;2023-03-16T13:00:32;5.00;;;3.10;;
51901;SDS011;37929;53.218;6.548;2023-03-16T13:03:00;3.47;;;2.72;;
51901;SDS011;37929;53.218;6.548;2023-03-16T13:05:28;4.78;;;3.25;;
51901;SDS011;37929;53.218;6.548;2023-03-16T13:10:40;5.07;;;3.30;;
51901;SDS011;37929;53.218;6.548;2023-03-16T13:13:10;4.57;;;2.95;;
51901;SDS011;37929;53.218;6.548;2023-03-16T13:15:39;5.43;;;3.47;;
51901;SDS011;37929;53.218;6.548;2023-03-16T13:20:54;6.25;;;3.45;;
51901;SDS011;37929;53.218;6.548;2023-03-16T13:28:51;5.25;;;3.30;;
51901;SDS011;37929;53.218;6.548;2023-03-16T13:34:50;6.53;;;3.33;;
51901;SDS011;37929;53.218;6.548;2023-03-16T13:37:12;8.20;;;3.83;;
51901;SDS011;37929;53.218;6.548;2023-03-16T13:39:50;6.25;;;2.95;;
51901;SDS011;37929;53.218;6.548;2023-03-16T13:42:21;6.53;;;3.13;;
51901;SDS011;37929;53.218;6.548;2023-03-16T13:44:50;8.00;;;3.53;;
51901;SDS011;37929;53.218;6.548;2023-03-16T13:47:20;5.43;;;3.00;;
51901;SDS011;37929;53.218;6.548;2023-03-16T13:49:54;4.72;;;3.00;;
51901;SDS011;37929;53.218;6.548;2023-03-16T13:52:27;4.30;;;3.08;;
51901;SDS011;37929;53.218;6.548;2023-03-16T13:54:59;6.13;;;3.20;;
51901;SDS011;37929;53.218;6.548;2023-03-16T13:57:28;4.53;;;3.33;;
51901;SDS011;37929;53.218;6.548;2023-03-16T14:00:00;7.35;;;3.28;;
51901;SDS011;37929;53.218;6.548;2023-03-16T14:04:56;6.03;;;3.17;;
51901;SDS011;37929;53.218;6.548;2023-03-16T14:07:22;4.07;;;2.60;;
51901;SDS011;37929;53.218;6.548;2023-03-16T14:09:50;5.97;;;3.75;;
51901;SDS011;37929;53.218;6.548;2023-03-16T14:12:17;6.07;;;2.97;;
51901;SDS011;37929;53.218;6.548;2023-03-16T14:14:48;4.15;;;3.13;;
51901;SDS011;37929;53.218;6.548;2023-03-16T14:17:19;4.22;;;3.10;;
51901;SDS011;37929;53.218;6.548;2023-03-16T14:19:46;6.75;;;3.45;;
51901;SDS011;37929;53.218;6.548;2023-03-16T14:22:18;5.63;;;3.25;;
51901;SDS011;37929;53.218;6.548;2023-03-16T14:24:57;5.70;;;2.90;;
51901;SDS011;37929;53.218;6.548;2023-03-16T14:30:01;9.23;;;3.65;;
51901;SDS011;37929;53.218;6.548;2023-03-16T14:32:39;5.82;;;3.40;;
51901;SDS011;37929;53.218;6.548;2023-03-16T14:35:16;6.15;;;3.90;;
51901;SDS011;37929;53.218;6.548;2023-03-16T14:37:45;5.22;;;3.55;;
51901;SDS011;37929;53.218;6.548;2023-03-16T14:40:27;5.15;;;3.30;;
51901;SDS011;37929;53.218;6.548;2023-03-16T14:42:56;7.65;;;2.80;;
51901;SDS011;37929;53.218;6.548;2023-03-16T14:45:28;7.03;;;3.30;;
51901;SDS011;37929;53.218;6.548;2023-03-16T14:47:59;6.30;;;3.30;;
51901;SDS011;37929;53.218;6.548;2023-03-16T14:50:30;7.35;;;3.45;;
51901;SDS011;37929;53.218;6.548;2023-03-16T14:52:57;5.18;;;3.40;;
51901;SDS011;37929;53.218;6.548;2023-03-16T14:55:24;5.18;;;3.13;;
51901;SDS011;37929;53.218;6.548;2023-03-16T14:57:51;4.72;;;2.97;;
51901;SDS011;37929;53.218;6.548;2023-03-16T15:00:18;5.93;;;3.20;;
51901;SDS011;37929;53.218;6.548;2023-03-16T15:02:57;7.18;;;3.47;;
51901;SDS011;37929;53.218;6.548;2023-03-16T15:05:31;4.15;;;3.20;;
51901;SDS011;37929;53.218;6.548;2023-03-16T15:08:03;6.28;;;3.30;;
51901;SDS011;37929;53.218;6.548;2023-03-16T15:10:34;4.35;;;3.13;;
51901;SDS011;37929;53.218;6.548;2023-03-16T15:13:01;5.03;;;3.05;;
51901;SDS011;37929;53.218;6.548;2023-03-16T15:15:37;4.53;;;2.90;;
51901;SDS011;37929;53.218;6.548;2023-03-16T15:18:06;6.47;;;3.20;;
51901;SDS011;37929;53.218;6.548;2023-03-16T15:20:34;4.93;;;3.13;;
51901;SDS011;37929;53.218;6.548;2023-03-16T15:23:05;5.05;;;2.92;;
51901;SDS011;37929;53.218;6.548;2023-03-16T15:25:40;7.05;;;2.65;;
51901;SDS011;37929;53.218;6.548;2023-03-16T15:28:10;4.90;;;2.83;;
51901;SDS011;37929;53.218;6.548;2023-03-16T15:30:44;3.90;;;2.50;;
51901;SDS011;37929;53.218;6.548;2023-03-16T15:33:12;7.13;;;3.83;;
51901;SDS011;37929;53.218;6.548;2023-03-16T15:35:38;3.88;;;2.70;;
51901;SDS011;37929;53.218;6.548;2023-03-16T15:38:09;4.63;;;2.70;;
51901;SDS011;37929;53.218;6.548;2023-03-16T15:40:44;5.63;;;3.30;;
51901;SDS011;37929;53.218;6.548;2023-03-16T15:43:12;7.13;;;3.15;;
51901;SDS011;37929;53.218;6.548;2023-03-16T15:45:40;5.63;;;3.03;;
51901;SDS011;37929;53.218;6.548;2023-03-16T15:48:07;4.57;;;2.83;;
51901;SDS011;37929;53.218;6.548;2023-03-16T15:50:34;7.28;;;3.53;;
51901;SDS011;37929;53.218;6.548;2023-03-16T15:53:03;4.50;;;2.95;;
51901;SDS011;37929;53.218;6.548;2023-03-16T15:55:36;4.90;;;2.90;;
51901;SDS011;37929;53.218;6.548;2023-03-16T15:58:04;6.20;;;2.90;;
51901;SDS011;37929;53.218;6.548;2023-03-16T16:00:34;6.53;;;3.15;;
51901;SDS011;37929;53.218;6.548;2023-03-16T16:03:02;5.10;;;2.90;;
51901;SDS011;37929;53.218;6.548;2023-03-16T16:05:29;5.75;;;3.05;;
51901;SDS011;37929;53.218;6.548;2023-03-16T16:07:56;6.03;;;2.95;;
51901;SDS011;37929;53.218;6.548;2023-03-16T16:10:24;4.00;;;2.80;;
51901;SDS011;37929;53.218;6.548;2023-03-16T16:12:51;4.80;;;2.78;;
51901;SDS011;37929;53.218;6.548;2023-03-16T16:15:25;5.55;;;2.78;;
51901;SDS011;37929;53.218;6.548;2023-03-16T16:17:55;5.82;;;2.92;;
51901;SDS011;37929;53.218;6.548;2023-03-16T16:22:52;3.67;;;2.75;;
51901;SDS011;37929;53.218;6.548;2023-03-16T16:25:24;4.70;;;2.85;;
51901;SDS011;37929;53.218;6.548;2023-03-16T16:27:56;5.78;;;2.70;;
51901;SDS011;37929;53.218;6.548;2023-03-16T16:30:24;5.57;;;2.92;;
51901;SDS011;37929;53.218;6.548;2023-03-16T16:32:52;5.70;;;3.00;;
51901;SDS011;37929;53.218;6.548;2023-03-16T16:35:19;3.92;;;2.80;;
51901;SDS011;37929;53.218;6.548;2023-03-16T16:37:46;7.95;;;3.10;;
51901;SDS011;37929;53.218;6.548;2023-03-16T16:40:17;7.38;;;3.40;;
51901;SDS011;37929;53.218;6.548;2023-03-16T16:42:45;5.75;;;3.15;;